Hakuryu Maru — JL5950 — position and weather

sailwx.info

Track history (hours):
 
Tides and Currents Weather Stations Pressure Air Temp Water Temp Dewpoint Dewpoint Depression Visibility Wind Speed Wind Dir Waves Ship Positions

Hakuryu Maru

Last reported at 2018-Jan-09 23:52 UTC. Time now 2018-Jan-17 23:51 UTC.
Position N 34°27' E 134°03'.

Length 115 m; draft 5.1 m.

Type: Cargo ship. MMSI: 431500789.

Date/timePositionNaut miles runAvg speedWind from/ knotsBaromVisibWave heightAir tempDewpointWater temp
2018-Jan-09 23:52N 34°27' E 134°03'513.9
2018-Jan-09 23:30N 34°26' E 134°09'714.7
2018-Jan-09 23:00N 34°24' E 134°18'714.9
2018-Jan-09 22:31N 34°21' E 134°26'815.3
2018-Jan-09 22:01N 34°17' E 134°34'815.0
2018-Jan-09 21:30N 34°13' E 134°41'611.5
2018-Jan-09 21:00N 34°08' E 134°46'714.3
2018-Jan-09 20:30N 34°03' E 134°52'714.5
2018-Jan-09 20:00N 33°57' E 134°57'714.4
2018-Jan-09 19:30N 33°52' E 135°02'1814.2
2018-Jan-09 18:16N 33°39' E 135°17'5411.1
2018-Jan-09 13:25N 33°47' E 136°20'2215.1
2018-Jan-09 11:55N 34°03' E 136°39'614.2
2018-Jan-09 11:28N 34°07' E 136°45'2713.3
2018-Jan-09 09:27N 34°30' E 137°01'612.4
2018-Jan-09 09:00N 34°35' E 136°58'611.9
2018-Jan-09 08:29N 34°40' E 137°03'714.3
2018-Jan-09 08:00N 34°43' E 137°10'7 0.7
2018-Jan-08 22:13N 34°42' E 137°18'2 7.9
2018-Jan-08 21:57N 34°44' E 137°18'410.0
2018-Jan-08 21:30N 34°42' E 137°13'0 0.0
2018-Jan-08 19:09N 34°42' E 137°13'0 0.0
2018-Jan-08 18:51N 34°42' E 137°13'0 0.0
2018-Jan-08 16:27N 34°42' E 137°13'0 0.0
2018-Jan-08 15:09N 34°42' E 137°13'0 0.0
2018-Jan-08 14:57N 34°42' E 137°13'0 0.0
2018-Jan-08 13:03N 34°42' E 137°13'0 0.0
2018-Jan-08 12:57N 34°42' E 137°13'0 0.0
2018-Jan-08 12:21N 34°42' E 137°13'0 0.0
2018-Jan-08 11:57N 34°42' E 137°13'0 0.0
2018-Jan-08 11:27N 34°42' E 137°13'0 0.0
2018-Jan-08 10:57N 34°42' E 137°13'0 0.0
2018-Jan-08 10:27N 34°42' E 137°13'0 0.0
2018-Jan-08 05:51N 34°42' E 137°13'0 0.0
2018-Jan-08 05:24N 34°42' E 137°13'4 6.9
2018-Jan-08 04:46N 34°41' E 137°08'413.0
2018-Jan-08 04:30N 34°40' E 137°04'612.7
2018-Jan-08 04:01N 34°35' E 136°59'10510.4
2018-Jan-07 18:00N 33°45' E 135°08'714.0
2018-Jan-07 17:30N 33°50' E 135°03'714.2
2018-Jan-07 17:01N 33°55' E 134°57'714.2
2018-Jan-07 16:30N 34°01' E 134°51'714.3
2018-Jan-07 16:01N 34°06' E 134°46'714.1
2018-Jan-07 15:30N 34°12' E 134°41'612.8
2018-Jan-07 15:00N 34°16' E 134°35'4 7.4
2018-Jan-07 14:30N 34°18' E 134°31'4 8.8
2018-Jan-07 14:00N 34°20' E 134°27'5 9.5
2018-Jan-07 13:30N 34°21' E 134°21'5 9.4
2018-Jan-07 12:58N 34°23' E 134°15'11 0.7
2018-Jan-06 21:41N 34°27' E 134°03'514.1
2018-Jan-06 21:22N 34°26' E 134°09'713.9
2018-Jan-06 20:53N 34°24' E 134°16'615.0
2018-Jan-06 20:30N 34°22' E 134°22'815.1
2018-Jan-06 20:01N 34°19' E 134°31'714.8
2018-Jan-06 19:30N 34°15' E 134°39'610.7
2018-Jan-06 18:57N 34°10' E 134°43'4 9.0
2018-Jan-06 18:31N 34°07' E 134°46'510.4
2018-Jan-06 18:01N 34°03' E 134°51'612.4
2018-Jan-06 17:31N 33°57' E 134°53'714.2
2018-Jan-06 17:01N 33°53' E 134°59'714.2
2018-Jan-06 16:30N 33°47' E 135°05'1614.1
2018-Jan-06 15:20N 33°33' E 135°15'714.3
2018-Jan-06 14:49N 33°31' E 135°24'4913.2
2018-Jan-06 11:05N 33°47' E 136°20'1715.1
2018-Jan-06 09:57N 33°59' E 136°35'1015.0
2018-Jan-06 09:17N 34°06' E 136°43'414.8
2018-Jan-06 09:00N 34°08' E 136°47'2215.2
2018-Jan-06 07:31N 34°28' E 137°00'315.3
2018-Jan-06 07:21N 34°30' E 137°01'1112.2
2018-Jan-06 06:26N 34°39' E 136°52'511.8
2018-Jan-06 06:00N 34°43' E 136°49'612.6
2018-Jan-06 05:30N 34°49' E 136°46'713.5
2018-Jan-06 05:00N 34°55' E 136°46'612.3
2018-Jan-06 04:30N 35°01' E 136°50'4 8.0
2018-Jan-06 04:00N 35°04' E 136°53'0 0.1
2018-Jan-06 03:29N 35°04' E 136°53'0 0.0
2018-Jan-06 02:59N 35°04' E 136°53'0 0.0
2018-Jan-06 02:29N 35°04' E 136°53'0 0.0
2018-Jan-06 01:59N 35°04' E 136°53'0 0.0
2018-Jan-06 01:29N 35°04' E 136°53'0 0.0
2018-Jan-06 00:59N 35°04' E 136°53'0 0.0
2018-Jan-06 00:29N 35°04' E 136°53'0 0.0
2018-Jan-05 23:59N 35°04' E 136°53'0 0.0
2018-Jan-05 23:29N 35°04' E 136°53'0 0.0
2018-Jan-05 22:59N 35°04' E 136°53'0 0.0
2018-Jan-05 22:29N 35°04' E 136°53'0 0.0
2018-Jan-05 21:59N 35°04' E 136°53'0 0.0
2018-Jan-05 21:29N 35°04' E 136°53'0 0.0
2018-Jan-05 20:59N 35°04' E 136°53'0 0.0
2018-Jan-05 20:29N 35°04' E 136°53'0 0.0
2018-Jan-05 19:59N 35°04' E 136°53'0 0.0
2018-Jan-05 19:29N 35°04' E 136°53'0 0.0
2018-Jan-05 18:59N 35°04' E 136°53'0 0.0
2018-Jan-05 18:29N 35°04' E 136°53'0 0.0
2018-Jan-05 17:59N 35°04' E 136°53'0 0.0
2018-Jan-05 17:29N 35°04' E 136°53'0 0.0
2018-Jan-05 16:59N 35°04' E 136°53'0 0.0
2018-Jan-05 16:29N 35°04' E 136°53'0 0.0
2018-Jan-05 15:59N 35°04' E 136°53'0 0.0
2018-Jan-05 15:29N 35°04' E 136°53'0 0.0
2018-Jan-05 14:59N 35°04' E 136°53'0 0.0
2018-Jan-05 14:29N 35°04' E 136°53'0 0.0
2018-Jan-05 13:59N 35°04' E 136°53'0 0.0
2018-Jan-05 13:29N 35°04' E 136°53'0 0.0
2018-Jan-05 12:59N 35°04' E 136°53'0 0.0
2018-Jan-05 12:29N 35°04' E 136°53'0 0.0
2018-Jan-05 11:59N 35°04' E 136°53'0 0.0
2018-Jan-05 11:29N 35°04' E 136°53'0 0.0
2018-Jan-05 10:59N 35°04' E 136°53'0 0.0
2018-Jan-05 10:29N 35°04' E 136°53'0 0.0
2018-Jan-05 09:59N 35°04' E 136°53'0 0.0
2018-Jan-05 09:29N 35°04' E 136°53'0 0.0
2018-Jan-05 08:56N 35°04' E 136°53'0 0.0
2018-Jan-05 08:29N 35°04' E 136°53'0 0.0
2018-Jan-05 07:58N 35°04' E 136°53'0 0.0
2018-Jan-05 07:28N 35°04' E 136°53'0 0.0
2018-Jan-05 06:55N 35°04' E 136°53'0 0.0
2018-Jan-05 06:28N 35°04' E 136°53'0 0.0
2018-Jan-05 05:58N 35°04' E 136°53'0 0.0
2018-Jan-05 05:28N 35°04' E 136°53'0 0.1
2018-Jan-05 05:00N 35°04' E 136°53'3 5.6
2018-Jan-05 04:30N 35°02' E 136°51'4 8.7
2018-Jan-05 04:00N 34°59' E 136°47'0 0.1
2018-Jan-05 03:30N 34°59' E 136°47'0 0.0
2018-Jan-05 03:00N 34°59' E 136°47'0 0.0
2018-Jan-05 02:30N 34°59' E 136°47'0 0.0
2018-Jan-05 02:00N 34°59' E 136°47'0 0.0
2018-Jan-05 01:30N 34°59' E 136°47'0 0.0
2018-Jan-05 01:00N 34°59' E 136°47'0 0.0
2018-Jan-05 00:30N 34°59' E 136°47'0 0.0
2018-Jan-05 00:00N 34°59' E 136°47'0 0.0
2018-Jan-04 23:27N 34°59' E 136°47'0 0.0
2018-Jan-04 23:00N 34°59' E 136°47'0 0.0
2018-Jan-04 22:30N 34°59' E 136°47'0 0.0
2018-Jan-04 22:00N 34°59' E 136°47'0 0.0
2018-Jan-04 21:30N 34°59' E 136°47'0 0.0
2018-Jan-04 21:00N 34°59' E 136°47'0 0.0
2018-Jan-04 20:30N 34°59' E 136°47'0 0.0
2018-Jan-04 20:00N 34°59' E 136°47'0 0.0
2018-Jan-04 19:30N 34°59' E 136°47'0 0.0
2018-Jan-04 19:00N 34°59' E 136°47'0 0.0
2018-Jan-04 18:30N 34°59' E 136°47'0 0.0
2018-Jan-04 18:00N 34°59' E 136°47'0 0.0
2018-Jan-04 17:30N 34°59' E 136°47'0 0.0
2018-Jan-04 17:00N 34°59' E 136°47'0 0.0
2018-Jan-04 16:30N 34°59' E 136°47'0 0.0
2018-Jan-04 16:00N 34°59' E 136°47'0 0.0
2018-Jan-04 15:30N 34°59' E 136°47'0 0.0
2018-Jan-04 15:00N 34°59' E 136°47'0 0.0
2018-Jan-04 14:30N 34°59' E 136°47'0 0.0
2018-Jan-04 13:59N 34°59' E 136°47'0 0.0
2018-Jan-04 13:29N 34°59' E 136°47'0 0.0
2018-Jan-04 12:56N 34°59' E 136°47'0 0.0
2018-Jan-04 12:29N 34°59' E 136°47'0 0.0
2018-Jan-04 11:59N 34°59' E 136°47'0 0.0
2018-Jan-04 11:29N 34°59' E 136°47'0 0.1
2018-Jan-04 10:56N 34°59' E 136°47'0 0.1
2018-Jan-04 10:29N 34°59' E 136°47'0 0.0
2018-Jan-04 09:59N 34°59' E 136°47'0 0.0
2018-Jan-04 09:29N 34°59' E 136°47'0 0.0
2018-Jan-04 08:59N 34°59' E 136°47'0 0.0
2018-Jan-04 08:29N 34°59' E 136°47'0 0.0
2018-Jan-04 07:59N 34°59' E 136°47'0 0.0
2018-Jan-04 07:29N 34°59' E 136°47'0 0.0
2018-Jan-04 06:59N 34°59' E 136°47'0 0.0
2018-Jan-04 06:29N 34°59' E 136°47'0 0.0
2018-Jan-04 05:59N 34°59' E 136°47'0 0.0
2018-Jan-04 05:29N 34°59' E 136°47'0 0.1
2018-Jan-04 04:59N 34°59' E 136°47'0 0.0
2018-Jan-04 04:29N 34°59' E 136°47'0 0.0
2018-Jan-04 03:59N 34°59' E 136°47'0 0.1
2018-Jan-04 03:29N 34°59' E 136°47'0 0.0
2018-Jan-04 02:59N 34°59' E 136°47'0 0.0
2018-Jan-04 02:29N 34°59' E 136°47'0 0.0
2018-Jan-04 01:59N 34°59' E 136°47'0 0.0
2018-Jan-04 01:29N 34°59' E 136°47'0 0.0
2018-Jan-04 00:59N 34°59' E 136°47'0 0.1
2018-Jan-04 00:26N 34°59' E 136°47'0 0.1
2018-Jan-03 23:56N 34°59' E 136°47'1 2.3
2018-Jan-03 23:31N 34°59' E 136°48'510.3
2018-Jan-03 23:01N 35°03' E 136°51'0 0.2
2018-Jan-03 22:28N 35°03' E 136°51'0 0.0
2018-Jan-03 21:58N 35°03' E 136°51'0 0.0
2018-Jan-03 21:28N 35°03' E 136°51'0 0.0
2018-Jan-03 20:55N 35°03' E 136°51'0 0.0
2018-Jan-03 20:28N 35°03' E 136°51'0 0.0
2018-Jan-03 19:58N 35°03' E 136°51'0 0.0
2018-Jan-03 19:28N 35°03' E 136°51'0 0.0
2018-Jan-03 18:58N 35°03' E 136°51'0 0.0
2018-Jan-03 18:28N 35°03' E 136°51'0 0.0
2018-Jan-03 17:58N 35°03' E 136°51'0 0.0
2018-Jan-03 17:28N 35°03' E 136°51'0 0.0
2018-Jan-03 16:55N 35°03' E 136°51'0 0.0
2018-Jan-03 16:28N 35°03' E 136°51'0 0.0
2018-Jan-03 15:58N 35°03' E 136°51'0 0.0
2018-Jan-03 15:28N 35°03' E 136°51'0 0.0
2018-Jan-03 14:58N 35°03' E 136°51'0 0.0
2018-Jan-03 14:28N 35°03' E 136°51'0 0.0
2018-Jan-03 13:58N 35°03' E 136°51'0 0.0
2018-Jan-03 13:28N 35°03' E 136°51'0 0.0
2018-Jan-03 12:58N 35°03' E 136°51'0 0.0
2018-Jan-03 12:28N 35°03' E 136°51'0 0.0
2018-Jan-03 11:55N 35°03' E 136°51'0 0.0
2018-Jan-03 11:28N 35°03' E 136°51'0 0.0
2018-Jan-03 10:58N 35°03' E 136°51'0 0.0
2018-Jan-03 10:28N 35°03' E 136°51'0 0.0
2018-Jan-03 09:58N 35°03' E 136°51'0 0.0
2018-Jan-03 09:28N 35°03' E 136°51'0 0.0
2018-Jan-03 08:58N 35°03' E 136°51'0 0.0
2018-Jan-03 08:28N 35°03' E 136°51'0 0.0
2018-Jan-03 07:58N 35°03' E 136°51'0 0.0
2018-Jan-03 07:28N 35°03' E 136°51'0 0.0
2018-Jan-03 06:58N 35°03' E 136°51'0 0.0
2018-Jan-03 06:28N 35°03' E 136°51'0 0.0
2018-Jan-03 05:58N 35°03' E 136°51'0 0.0
2018-Jan-03 05:28N 35°03' E 136°51'0 0.0
2018-Jan-03 04:58N 35°03' E 136°51'0 0.0
2018-Jan-03 04:28N 35°03' E 136°51'0 0.0
2018-Jan-03 03:58N 35°03' E 136°51'0 0.0
2018-Jan-03 03:28N 35°03' E 136°51'0 0.0
2018-Jan-03 02:58N 35°03' E 136°51'0 0.0
2018-Jan-03 02:28N 35°03' E 136°51'0 0.0
2018-Jan-03 01:58N 35°03' E 136°51'0 0.0
2018-Jan-03 01:28N 35°03' E 136°51'0 0.0
2018-Jan-03 00:58N 35°03' E 136°51'0 0.0
2018-Jan-03 00:28N 35°03' E 136°51'0 0.0
2018-Jan-02 23:58N 35°03' E 136°51'0 0.0
2018-Jan-02 23:28N 35°03' E 136°51'0 0.0
2018-Jan-02 22:58N 35°03' E 136°51'0 0.0
2018-Jan-02 22:28N 35°03' E 136°51'0 0.0
2018-Jan-02 22:01N 35°03' E 136°51'0 0.0
2018-Jan-02 21:30N 35°03' E 136°51'0 0.0
2018-Jan-02 21:00N 35°03' E 136°51'0 0.0
2018-Jan-02 20:31N 35°03' E 136°51'0 0.0
2018-Jan-02 20:00N 35°03' E 136°51'0 0.0
2018-Jan-02 19:30N 35°03' E 136°51'0 0.0
2018-Jan-02 18:54N 35°03' E 136°51'0 0.0
2018-Jan-02 18:30N 35°03' E 136°51'0 0.0
2018-Jan-02 18:00N 35°03' E 136°51'0 0.0
2018-Jan-02 17:30N 35°03' E 136°51'0 0.0
2018-Jan-02 17:00N 35°03' E 136°51'0 0.0
2018-Jan-02 16:30N 35°03' E 136°51'0 0.0
2018-Jan-02 16:00N 35°03' E 136°51'0 0.0
2018-Jan-02 15:30N 35°03' E 136°51'0 0.0
2018-Jan-02 15:00N 35°03' E 136°51'0 0.0
2018-Jan-02 14:30N 35°03' E 136°51'0 0.0
2018-Jan-02 14:00N 35°03' E 136°51'0 0.0
2018-Jan-02 13:30N 35°03' E 136°51'0 0.0
2018-Jan-02 13:00N 35°03' E 136°51'0 0.0
2018-Jan-02 12:30N 35°03' E 136°51'0 0.0
2018-Jan-02 12:00N 35°03' E 136°51'0 0.0
2018-Jan-02 11:30N 35°03' E 136°51'0 0.0
2018-Jan-02 11:00N 35°03' E 136°51'0 0.0
2018-Jan-02 10:30N 35°03' E 136°51'0 0.0
2018-Jan-02 10:00N 35°03' E 136°51'0 0.0
2018-Jan-02 09:30N 35°03' E 136°51'0 0.0
2018-Jan-02 08:30N 35°03' E 136°51'0 0.0
2018-Jan-02 07:57N 35°03' E 136°51'0 0.0
2018-Jan-02 07:30N 35°03' E 136°51'0 0.0
2018-Jan-02 06:54N 35°03' E 136°51'0 0.0
2018-Jan-02 06:30N 35°03' E 136°51'0 0.0
2018-Jan-02 06:00N 35°03' E 136°51'0 0.0
2018-Jan-02 05:30N 35°03' E 136°51'0 0.0
2018-Jan-02 04:30N 35°03' E 136°51'0 0.0
2018-Jan-02 04:00N 35°03' E 136°51'0 0.0
2018-Jan-02 03:30N 35°03' E 136°51'0 0.0
2018-Jan-02 03:00N 35°03' E 136°51'0 0.0
2018-Jan-02 02:30N 35°03' E 136°51'0 0.0
2018-Jan-02 02:00N 35°03' E 136°51'0 0.0
2018-Jan-02 01:30N 35°03' E 136°51'0 0.0
2018-Jan-02 01:00N 35°03' E 136°51'0 0.3
2018-Jan-02 00:30N 35°03' E 136°51'5 9.3
2018-Jan-02 00:00N 34°59' E 136°49'1 2.6
2018-Jan-01 23:30N 34°59' E 136°47'0 0.0
2018-Jan-01 23:00N 34°59' E 136°47'0 0.0
2018-Jan-01 22:30N 34°59' E 136°47'0 0.0
2018-Jan-01 22:00N 34°59' E 136°47'0 0.0
2018-Jan-01 21:30N 34°59' E 136°47'0 0.0
2018-Jan-01 21:00N 34°59' E 136°47'0 0.0
2018-Jan-01 20:30N 34°59' E 136°47'0 0.0
2018-Jan-01 20:00N 34°59' E 136°47'0 0.0
2018-Jan-01 19:30N 34°59' E 136°47'0 0.0
2018-Jan-01 18:59N 34°59' E 136°47'0 0.0
2018-Jan-01 18:29N 34°59' E 136°47'0 0.0
2018-Jan-01 17:59N 34°59' E 136°47'0 0.0
2018-Jan-01 17:29N 34°59' E 136°47'0 0.0
2018-Jan-01 14:59N 34°59' E 136°47'0 0.0
2018-Jan-01 14:29N 34°59' E 136°47'0 0.0
2018-Jan-01 13:59N 34°59' E 136°47'0 0.0
2018-Jan-01 13:29N 34°59' E 136°47'0 0.0
2018-Jan-01 12:59N 34°59' E 136°47'0 0.0
2018-Jan-01 11:59N 34°59' E 136°47'0 0.0
2018-Jan-01 11:29N 34°59' E 136°47'0 0.0
2018-Jan-01 10:59N 34°59' E 136°47'0 0.0
2018-Jan-01 10:29N 34°59' E 136°47'0 0.0
2018-Jan-01 09:59N 34°59' E 136°47'0 0.0
2018-Jan-01 09:29N 34°59' E 136°47'0 0.0
2018-Jan-01 08:29N 34°59' E 136°47'0 0.0
2018-Jan-01 07:59N 34°59' E 136°47'0 0.0
2018-Jan-01 07:23N 34°59' E 136°47'0 0.0
2018-Jan-01 06:59N 34°59' E 136°47'0 0.0
2018-Jan-01 05:59N 34°59' E 136°47'0 0.0
2018-Jan-01 05:29N 34°59' E 136°47'0 0.0
2018-Jan-01 04:59N 34°59' E 136°47'0 0.0
2018-Jan-01 03:59N 34°59' E 136°47'0 0.1
2018-Jan-01 03:29N 34°59' E 136°47'0 0.1
2018-Jan-01 02:59N 34°59' E 136°47'0 0.0
2018-Jan-01 02:29N 34°59' E 136°47'0 0.0
2018-Jan-01 01:59N 34°59' E 136°47'0 0.1
2018-Jan-01 01:29N 34°59' E 136°47'0 0.0
2018-Jan-01 00:29N 34°59' E 136°47'0 0.0
2017-Dec-31 20:59N 34°59' E 136°47'0 0.0
2017-Dec-31 20:29N 34°59' E 136°47'0 0.0
2017-Dec-31 19:59N 34°59' E 136°47'0 0.0
2017-Dec-31 19:29N 34°59' E 136°47'0 0.0
2017-Dec-31 18:59N 34°59' E 136°47'0 0.0
2017-Dec-31 18:26N 34°59' E 136°47'0 0.0
2017-Dec-31 17:59N 34°59' E 136°47'0 0.0
2017-Dec-31 17:29N 34°59' E 136°47'0 0.0
2017-Dec-31 16:59N 34°59' E 136°47'0 0.0
2017-Dec-31 16:29N 34°59' E 136°47'0 0.1
2017-Dec-31 15:53N 34°59' E 136°47'0 0.1
2017-Dec-31 15:29N 34°59' E 136°47'0 0.0
2017-Dec-31 14:59N 34°59' E 136°47'0 0.1
2017-Dec-31 14:29N 34°59' E 136°47'0 0.0
2017-Dec-31 13:59N 34°59' E 136°47'0 0.0
2017-Dec-31 13:29N 34°59' E 136°47'0 0.0
2017-Dec-31 12:59N 34°59' E 136°47'0 0.0
2017-Dec-31 12:29N 34°59' E 136°47'0 0.0
2017-Dec-31 11:59N 34°59' E 136°47'0 0.0
2017-Dec-31 11:29N 34°59' E 136°47'0 0.0
2017-Dec-31 10:59N 34°59' E 136°47'0 0.0
2017-Dec-31 10:26N 34°59' E 136°47'0 0.0
2017-Dec-31 09:59N 34°59' E 136°47'0 0.0
2017-Dec-31 09:26N 34°59' E 136°47'0 0.0
2017-Dec-31 08:59N 34°59' E 136°47'0 0.0
2017-Dec-31 08:29N 34°59' E 136°47'0 0.0
2017-Dec-31 07:59N 34°59' E 136°47'0 0.0
2017-Dec-31 07:29N 34°59' E 136°47'0 0.0
2017-Dec-31 06:58N 34°59' E 136°47'0 0.0
2017-Dec-31 06:28N 34°59' E 136°47'0 0.0
2017-Dec-31 05:58N 34°59' E 136°47'0 0.0
2017-Dec-31 05:28N 34°59' E 136°47'0 0.0
2017-Dec-31 04:58N 34°59' E 136°47'0 0.0
2017-Dec-31 04:28N 34°59' E 136°47'2 4.0
2017-Dec-31 04:00N 34°57' E 136°47'713.6
2017-Dec-31 03:30N 34°50' E 136°48'713.6
2017-Dec-31 03:01N 34°44' E 136°50'714.1
2017-Dec-31 02:30N 34°39' E 136°56'3011.8
2017-Dec-30 23:55N 34°09' E 136°48'  
Track history (hours):
 
Tides and Currents Weather Stations Pressure Air Temp Water Temp Dewpoint Dewpoint Depression Visibility Wind Speed Wind Dir Waves Ship Positions

Hakuryu Maru

Last reported at 2018-Jan-09 23:52 UTC. Time now 2018-Jan-17 23:51 UTC.
Position N 34°27' E 134°03'.

Length 115 m; draft 5.1 m.

Type: Cargo ship. MMSI: 431500789.

Date/timePositionNaut miles runAvg speedWind from/ knotsBaromVisibWave heightAir tempDewpointWater temp
2018-Jan-09 23:52N 34°27' E 134°03'513.9
2018-Jan-09 23:30N 34°26' E 134°09'714.7
2018-Jan-09 23:00N 34°24' E 134°18'714.9
2018-Jan-09 22:31N 34°21' E 134°26'815.3
2018-Jan-09 22:01N 34°17' E 134°34'815.0
2018-Jan-09 21:30N 34°13' E 134°41'611.5
2018-Jan-09 21:00N 34°08' E 134°46'714.3
2018-Jan-09 20:30N 34°03' E 134°52'714.5
2018-Jan-09 20:00N 33°57' E 134°57'714.4
2018-Jan-09 19:30N 33°52' E 135°02'1814.2
2018-Jan-09 18:16N 33°39' E 135°17'5411.1
2018-Jan-09 13:25N 33°47' E 136°20'2215.1
2018-Jan-09 11:55N 34°03' E 136°39'614.2
2018-Jan-09 11:28N 34°07' E 136°45'2713.3
2018-Jan-09 09:27N 34°30' E 137°01'612.4
2018-Jan-09 09:00N 34°35' E 136°58'611.9
2018-Jan-09 08:29N 34°40' E 137°03'714.3
2018-Jan-09 08:00N 34°43' E 137°10'7 0.7
2018-Jan-08 22:13N 34°42' E 137°18'2 7.9
2018-Jan-08 21:57N 34°44' E 137°18'410.0
2018-Jan-08 21:30N 34°42' E 137°13'0 0.0
2018-Jan-08 19:09N 34°42' E 137°13'0 0.0
2018-Jan-08 18:51N 34°42' E 137°13'0 0.0
2018-Jan-08 16:27N 34°42' E 137°13'0 0.0
2018-Jan-08 15:09N 34°42' E 137°13'0 0.0
2018-Jan-08 14:57N 34°42' E 137°13'0 0.0
2018-Jan-08 13:03N 34°42' E 137°13'0 0.0
2018-Jan-08 12:57N 34°42' E 137°13'0 0.0
2018-Jan-08 12:21N 34°42' E 137°13'0 0.0
2018-Jan-08 11:57N 34°42' E 137°13'0 0.0
2018-Jan-08 11:27N 34°42' E 137°13'0 0.0
2018-Jan-08 10:57N 34°42' E 137°13'0 0.0
2018-Jan-08 10:27N 34°42' E 137°13'0 0.0
2018-Jan-08 05:51N 34°42' E 137°13'0 0.0
2018-Jan-08 05:24N 34°42' E 137°13'4 6.9
2018-Jan-08 04:46N 34°41' E 137°08'413.0
2018-Jan-08 04:30N 34°40' E 137°04'612.7
2018-Jan-08 04:01N 34°35' E 136°59'10510.4
2018-Jan-07 18:00N 33°45' E 135°08'714.0
2018-Jan-07 17:30N 33°50' E 135°03'714.2
2018-Jan-07 17:01N 33°55' E 134°57'714.2
2018-Jan-07 16:30N 34°01' E 134°51'714.3
2018-Jan-07 16:01N 34°06' E 134°46'714.1
2018-Jan-07 15:30N 34°12' E 134°41'612.8
2018-Jan-07 15:00N 34°16' E 134°35'4 7.4
2018-Jan-07 14:30N 34°18' E 134°31'4 8.8
2018-Jan-07 14:00N 34°20' E 134°27'5 9.5
2018-Jan-07 13:30N 34°21' E 134°21'5 9.4
2018-Jan-07 12:58N 34°23' E 134°15'11 0.7
2018-Jan-06 21:41N 34°27' E 134°03'514.1
2018-Jan-06 21:22N 34°26' E 134°09'713.9
2018-Jan-06 20:53N 34°24' E 134°16'615.0
2018-Jan-06 20:30N 34°22' E 134°22'815.1
2018-Jan-06 20:01N 34°19' E 134°31'714.8
2018-Jan-06 19:30N 34°15' E 134°39'610.7
2018-Jan-06 18:57N 34°10' E 134°43'4 9.0
2018-Jan-06 18:31N 34°07' E 134°46'510.4
2018-Jan-06 18:01N 34°03' E 134°51'612.4
2018-Jan-06 17:31N 33°57' E 134°53'714.2
2018-Jan-06 17:01N 33°53' E 134°59'714.2
2018-Jan-06 16:30N 33°47' E 135°05'1614.1
2018-Jan-06 15:20N 33°33' E 135°15'714.3
2018-Jan-06 14:49N 33°31' E 135°24'4913.2
2018-Jan-06 11:05N 33°47' E 136°20'1715.1
2018-Jan-06 09:57N 33°59' E 136°35'1015.0
2018-Jan-06 09:17N 34°06' E 136°43'414.8
2018-Jan-06 09:00N 34°08' E 136°47'2215.2
2018-Jan-06 07:31N 34°28' E 137°00'315.3
2018-Jan-06 07:21N 34°30' E 137°01'1112.2
2018-Jan-06 06:26N 34°39' E 136°52'511.8
2018-Jan-06 06:00N 34°43' E 136°49'612.6
2018-Jan-06 05:30N 34°49' E 136°46'713.5
2018-Jan-06 05:00N 34°55' E 136°46'612.3
2018-Jan-06 04:30N 35°01' E 136°50'4 8.0
2018-Jan-06 04:00N 35°04' E 136°53'0 0.1
2018-Jan-06 03:29N 35°04' E 136°53'0 0.0
2018-Jan-06 02:59N 35°04' E 136°53'0 0.0
2018-Jan-06 02:29N 35°04' E 136°53'0 0.0
2018-Jan-06 01:59N 35°04' E 136°53'0 0.0
2018-Jan-06 01:29N 35°04' E 136°53'0 0.0
2018-Jan-06 00:59N 35°04' E 136°53'0 0.0
2018-Jan-06 00:29N 35°04' E 136°53'0 0.0
2018-Jan-05 23:59N 35°04' E 136°53'0 0.0
2018-Jan-05 23:29N 35°04' E 136°53'0 0.0
2018-Jan-05 22:59N 35°04' E 136°53'0 0.0
2018-Jan-05 22:29N 35°04' E 136°53'0 0.0
2018-Jan-05 21:59N 35°04' E 136°53'0 0.0
2018-Jan-05 21:29N 35°04' E 136°53'0 0.0
2018-Jan-05 20:59N 35°04' E 136°53'0 0.0
2018-Jan-05 20:29N 35°04' E 136°53'0 0.0
2018-Jan-05 19:59N 35°04' E 136°53'0 0.0
2018-Jan-05 19:29N 35°04' E 136°53'0 0.0
2018-Jan-05 18:59N 35°04' E 136°53'0 0.0
2018-Jan-05 18:29N 35°04' E 136°53'0 0.0
2018-Jan-05 17:59N 35°04' E 136°53'0 0.0
2018-Jan-05 17:29N 35°04' E 136°53'0 0.0
2018-Jan-05 16:59N 35°04' E 136°53'0 0.0
2018-Jan-05 16:29N 35°04' E 136°53'0 0.0
2018-Jan-05 15:59N 35°04' E 136°53'0 0.0
2018-Jan-05 15:29N 35°04' E 136°53'0 0.0
2018-Jan-05 14:59N 35°04' E 136°53'0 0.0
2018-Jan-05 14:29N 35°04' E 136°53'0 0.0
2018-Jan-05 13:59N 35°04' E 136°53'0 0.0
2018-Jan-05 13:29N 35°04' E 136°53'0 0.0
2018-Jan-05 12:59N 35°04' E 136°53'0 0.0
2018-Jan-05 12:29N 35°04' E 136°53'0 0.0
2018-Jan-05 11:59N 35°04' E 136°53'0 0.0
2018-Jan-05 11:29N 35°04' E 136°53'0 0.0
2018-Jan-05 10:59N 35°04' E 136°53'0 0.0
2018-Jan-05 10:29N 35°04' E 136°53'0 0.0
2018-Jan-05 09:59N 35°04' E 136°53'0 0.0
2018-Jan-05 09:29N 35°04' E 136°53'0 0.0
2018-Jan-05 08:56N 35°04' E 136°53'0 0.0
2018-Jan-05 08:29N 35°04' E 136°53'0 0.0
2018-Jan-05 07:58N 35°04' E 136°53'0 0.0
2018-Jan-05 07:28N 35°04' E 136°53'0 0.0
2018-Jan-05 06:55N 35°04' E 136°53'0 0.0
2018-Jan-05 06:28N 35°04' E 136°53'0 0.0
2018-Jan-05 05:58N 35°04' E 136°53'0 0.0
2018-Jan-05 05:28N 35°04' E 136°53'0 0.1
2018-Jan-05 05:00N 35°04' E 136°53'3 5.6
2018-Jan-05 04:30N 35°02' E 136°51'4 8.7
2018-Jan-05 04:00N 34°59' E 136°47'0 0.1
2018-Jan-05 03:30N 34°59' E 136°47'0 0.0
2018-Jan-05 03:00N 34°59' E 136°47'0 0.0
2018-Jan-05 02:30N 34°59' E 136°47'0 0.0
2018-Jan-05 02:00N 34°59' E 136°47'0 0.0
2018-Jan-05 01:30N 34°59' E 136°47'0 0.0
2018-Jan-05 01:00N 34°59' E 136°47'0 0.0
2018-Jan-05 00:30N 34°59' E 136°47'0 0.0
2018-Jan-05 00:00N 34°59' E 136°47'0 0.0
2018-Jan-04 23:27N 34°59' E 136°47'0 0.0
2018-Jan-04 23:00N 34°59' E 136°47'0 0.0
2018-Jan-04 22:30N 34°59' E 136°47'0 0.0
2018-Jan-04 22:00N 34°59' E 136°47'0 0.0
2018-Jan-04 21:30N 34°59' E 136°47'0 0.0
2018-Jan-04 21:00N 34°59' E 136°47'0 0.0
2018-Jan-04 20:30N 34°59' E 136°47'0 0.0
2018-Jan-04 20:00N 34°59' E 136°47'0 0.0
2018-Jan-04 19:30N 34°59' E 136°47'0 0.0
2018-Jan-04 19:00N 34°59' E 136°47'0 0.0
2018-Jan-04 18:30N 34°59' E 136°47'0 0.0
2018-Jan-04 18:00N 34°59' E 136°47'0 0.0
2018-Jan-04 17:30N 34°59' E 136°47'0 0.0
2018-Jan-04 17:00N 34°59' E 136°47'0 0.0
2018-Jan-04 16:30N 34°59' E 136°47'0 0.0
2018-Jan-04 16:00N 34°59' E 136°47'0 0.0
2018-Jan-04 15:30N 34°59' E 136°47'0 0.0
2018-Jan-04 15:00N 34°59' E 136°47'0 0.0
2018-Jan-04 14:30N 34°59' E 136°47'0 0.0
2018-Jan-04 13:59N 34°59' E 136°47'0 0.0
2018-Jan-04 13:29N 34°59' E 136°47'0 0.0
2018-Jan-04 12:56N 34°59' E 136°47'0 0.0
2018-Jan-04 12:29N 34°59' E 136°47'0 0.0
2018-Jan-04 11:59N 34°59' E 136°47'0 0.0
2018-Jan-04 11:29N 34°59' E 136°47'0 0.1
2018-Jan-04 10:56N 34°59' E 136°47'0 0.1
2018-Jan-04 10:29N 34°59' E 136°47'0 0.0
2018-Jan-04 09:59N 34°59' E 136°47'0 0.0
2018-Jan-04 09:29N 34°59' E 136°47'0 0.0
2018-Jan-04 08:59N 34°59' E 136°47'0 0.0
2018-Jan-04 08:29N 34°59' E 136°47'0 0.0
2018-Jan-04 07:59N 34°59' E 136°47'0 0.0
2018-Jan-04 07:29N 34°59' E 136°47'0 0.0
2018-Jan-04 06:59N 34°59' E 136°47'0 0.0
2018-Jan-04 06:29N 34°59' E 136°47'0 0.0
2018-Jan-04 05:59N 34°59' E 136°47'0 0.0
2018-Jan-04 05:29N 34°59' E 136°47'0 0.1
2018-Jan-04 04:59N 34°59' E 136°47'0 0.0
2018-Jan-04 04:29N 34°59' E 136°47'0 0.0
2018-Jan-04 03:59N 34°59' E 136°47'0 0.1
2018-Jan-04 03:29N 34°59' E 136°47'0 0.0
2018-Jan-04 02:59N 34°59' E 136°47'0 0.0
2018-Jan-04 02:29N 34°59' E 136°47'0 0.0
2018-Jan-04 01:59N 34°59' E 136°47'0 0.0
2018-Jan-04 01:29N 34°59' E 136°47'0 0.0
2018-Jan-04 00:59N 34°59' E 136°47'0 0.1
2018-Jan-04 00:26N 34°59' E 136°47'0 0.1
2018-Jan-03 23:56N 34°59' E 136°47'1 2.3
2018-Jan-03 23:31N 34°59' E 136°48'510.3
2018-Jan-03 23:01N 35°03' E 136°51'0 0.2
2018-Jan-03 22:28N 35°03' E 136°51'0 0.0
2018-Jan-03 21:58N 35°03' E 136°51'0 0.0
2018-Jan-03 21:28N 35°03' E 136°51'0 0.0
2018-Jan-03 20:55N 35°03' E 136°51'0 0.0
2018-Jan-03 20:28N 35°03' E 136°51'0 0.0
2018-Jan-03 19:58N 35°03' E 136°51'0 0.0
2018-Jan-03 19:28N 35°03' E 136°51'0 0.0
2018-Jan-03 18:58N 35°03' E 136°51'0 0.0
2018-Jan-03 18:28N 35°03' E 136°51'0 0.0
2018-Jan-03 17:58N 35°03' E 136°51'0 0.0
2018-Jan-03 17:28N 35°03' E 136°51'0 0.0
2018-Jan-03 16:55N 35°03' E 136°51'0 0.0
2018-Jan-03 16:28N 35°03' E 136°51'0 0.0
2018-Jan-03 15:58N 35°03' E 136°51'0 0.0
2018-Jan-03 15:28N 35°03' E 136°51'0 0.0
2018-Jan-03 14:58N 35°03' E 136°51'0 0.0
2018-Jan-03 14:28N 35°03' E 136°51'0 0.0
2018-Jan-03 13:58N 35°03' E 136°51'0 0.0
2018-Jan-03 13:28N 35°03' E 136°51'0 0.0
2018-Jan-03 12:58N 35°03' E 136°51'0 0.0
2018-Jan-03 12:28N 35°03' E 136°51'0 0.0
2018-Jan-03 11:55N 35°03' E 136°51'0 0.0
2018-Jan-03 11:28N 35°03' E 136°51'0 0.0
2018-Jan-03 10:58N 35°03' E 136°51'0 0.0
2018-Jan-03 10:28N 35°03' E 136°51'0 0.0
2018-Jan-03 09:58N 35°03' E 136°51'0 0.0
2018-Jan-03 09:28N 35°03' E 136°51'0 0.0
2018-Jan-03 08:58N 35°03' E 136°51'0 0.0
2018-Jan-03 08:28N 35°03' E 136°51'0 0.0
2018-Jan-03 07:58N 35°03' E 136°51'0 0.0
2018-Jan-03 07:28N 35°03' E 136°51'0 0.0
2018-Jan-03 06:58N 35°03' E 136°51'0 0.0
2018-Jan-03 06:28N 35°03' E 136°51'0 0.0
2018-Jan-03 05:58N 35°03' E 136°51'0 0.0
2018-Jan-03 05:28N 35°03' E 136°51'0 0.0
2018-Jan-03 04:58N 35°03' E 136°51'0 0.0
2018-Jan-03 04:28N 35°03' E 136°51'0 0.0
2018-Jan-03 03:58N 35°03' E 136°51'0 0.0
2018-Jan-03 03:28N 35°03' E 136°51'0 0.0
2018-Jan-03 02:58N 35°03' E 136°51'0 0.0
2018-Jan-03 02:28N 35°03' E 136°51'0 0.0
2018-Jan-03 01:58N 35°03' E 136°51'0 0.0
2018-Jan-03 01:28N 35°03' E 136°51'0 0.0
2018-Jan-03 00:58N 35°03' E 136°51'0 0.0
2018-Jan-03 00:28N 35°03' E 136°51'0 0.0
2018-Jan-02 23:58N 35°03' E 136°51'0 0.0
2018-Jan-02 23:28N 35°03' E 136°51'0 0.0
2018-Jan-02 22:58N 35°03' E 136°51'0 0.0
2018-Jan-02 22:28N 35°03' E 136°51'0 0.0
2018-Jan-02 22:01N 35°03' E 136°51'0 0.0
2018-Jan-02 21:30N 35°03' E 136°51'0 0.0
2018-Jan-02 21:00N 35°03' E 136°51'0 0.0
2018-Jan-02 20:31N 35°03' E 136°51'0 0.0
2018-Jan-02 20:00N 35°03' E 136°51'0 0.0
2018-Jan-02 19:30N 35°03' E 136°51'0 0.0
2018-Jan-02 18:54N 35°03' E 136°51'0 0.0
2018-Jan-02 18:30N 35°03' E 136°51'0 0.0
2018-Jan-02 18:00N 35°03' E 136°51'0 0.0
2018-Jan-02 17:30N 35°03' E 136°51'0 0.0
2018-Jan-02 17:00N 35°03' E 136°51'0 0.0
2018-Jan-02 16:30N 35°03' E 136°51'0 0.0
2018-Jan-02 16:00N 35°03' E 136°51'0 0.0
2018-Jan-02 15:30N 35°03' E 136°51'0 0.0
2018-Jan-02 15:00N 35°03' E 136°51'0 0.0
2018-Jan-02 14:30N 35°03' E 136°51'0 0.0
2018-Jan-02 14:00N 35°03' E 136°51'0 0.0
2018-Jan-02 13:30N 35°03' E 136°51'0 0.0
2018-Jan-02 13:00N 35°03' E 136°51'0 0.0
2018-Jan-02 12:30N 35°03' E 136°51'0 0.0
2018-Jan-02 12:00N 35°03' E 136°51'0 0.0
2018-Jan-02 11:30N 35°03' E 136°51'0 0.0
2018-Jan-02 11:00N 35°03' E 136°51'0 0.0
2018-Jan-02 10:30N 35°03' E 136°51'0 0.0
2018-Jan-02 10:00N 35°03' E 136°51'0 0.0
2018-Jan-02 09:30N 35°03' E 136°51'0 0.0
2018-Jan-02 08:30N 35°03' E 136°51'0 0.0
2018-Jan-02 07:57N 35°03' E 136°51'0 0.0
2018-Jan-02 07:30N 35°03' E 136°51'0 0.0
2018-Jan-02 06:54N 35°03' E 136°51'0 0.0
2018-Jan-02 06:30N 35°03' E 136°51'0 0.0
2018-Jan-02 06:00N 35°03' E 136°51'0 0.0
2018-Jan-02 05:30N 35°03' E 136°51'0 0.0
2018-Jan-02 04:30N 35°03' E 136°51'0 0.0
2018-Jan-02 04:00N 35°03' E 136°51'0 0.0
2018-Jan-02 03:30N 35°03' E 136°51'0 0.0
2018-Jan-02 03:00N 35°03' E 136°51'0 0.0
2018-Jan-02 02:30N 35°03' E 136°51'0 0.0
2018-Jan-02 02:00N 35°03' E 136°51'0 0.0
2018-Jan-02 01:30N 35°03' E 136°51'0 0.0
2018-Jan-02 01:00N 35°03' E 136°51'0 0.3
2018-Jan-02 00:30N 35°03' E 136°51'5 9.3
2018-Jan-02 00:00N 34°59' E 136°49'1 2.6
2018-Jan-01 23:30N 34°59' E 136°47'0 0.0
2018-Jan-01 23:00N 34°59' E 136°47'0 0.0
2018-Jan-01 22:30N 34°59' E 136°47'0 0.0
2018-Jan-01 22:00N 34°59' E 136°47'0 0.0
2018-Jan-01 21:30N 34°59' E 136°47'0 0.0
2018-Jan-01 21:00N 34°59' E 136°47'0 0.0
2018-Jan-01 20:30N 34°59' E 136°47'0 0.0
2018-Jan-01 20:00N 34°59' E 136°47'0 0.0
2018-Jan-01 19:30N 34°59' E 136°47'0 0.0
2018-Jan-01 18:59N 34°59' E 136°47'0 0.0
2018-Jan-01 18:29N 34°59' E 136°47'0 0.0
2018-Jan-01 17:59N 34°59' E 136°47'0 0.0
2018-Jan-01 17:29N 34°59' E 136°47'0 0.0
2018-Jan-01 14:59N 34°59' E 136°47'0 0.0
2018-Jan-01 14:29N 34°59' E 136°47'0 0.0
2018-Jan-01 13:59N 34°59' E 136°47'0 0.0
2018-Jan-01 13:29N 34°59' E 136°47'0 0.0
2018-Jan-01 12:59N 34°59' E 136°47'0 0.0
2018-Jan-01 11:59N 34°59' E 136°47'0 0.0
2018-Jan-01 11:29N 34°59' E 136°47'0 0.0
2018-Jan-01 10:59N 34°59' E 136°47'0 0.0
2018-Jan-01 10:29N 34°59' E 136°47'0 0.0
2018-Jan-01 09:59N 34°59' E 136°47'0 0.0
2018-Jan-01 09:29N 34°59' E 136°47'0 0.0
2018-Jan-01 08:29N 34°59' E 136°47'0 0.0
2018-Jan-01 07:59N 34°59' E 136°47'0 0.0
2018-Jan-01 07:23N 34°59' E 136°47'0 0.0
2018-Jan-01 06:59N 34°59' E 136°47'0 0.0
2018-Jan-01 05:59N 34°59' E 136°47'0 0.0
2018-Jan-01 05:29N 34°59' E 136°47'0 0.0
2018-Jan-01 04:59N 34°59' E 136°47'0 0.0
2018-Jan-01 03:59N 34°59' E 136°47'0 0.1
2018-Jan-01 03:29N 34°59' E 136°47'0 0.1
2018-Jan-01 02:59N 34°59' E 136°47'0 0.0
2018-Jan-01 02:29N 34°59' E 136°47'0 0.0
2018-Jan-01 01:59N 34°59' E 136°47'0 0.1
2018-Jan-01 01:29N 34°59' E 136°47'0 0.0
2018-Jan-01 00:29N 34°59' E 136°47'0 0.0
2017-Dec-31 20:59N 34°59' E 136°47'0 0.0
2017-Dec-31 20:29N 34°59' E 136°47'0 0.0
2017-Dec-31 19:59N 34°59' E 136°47'0 0.0
2017-Dec-31 19:29N 34°59' E 136°47'0 0.0
2017-Dec-31 18:59N 34°59' E 136°47'0 0.0
2017-Dec-31 18:26N 34°59' E 136°47'0 0.0
2017-Dec-31 17:59N 34°59' E 136°47'0 0.0
2017-Dec-31 17:29N 34°59' E 136°47'0 0.0
2017-Dec-31 16:59N 34°59' E 136°47'0 0.0
2017-Dec-31 16:29N 34°59' E 136°47'0 0.1
2017-Dec-31 15:53N 34°59' E 136°47'0 0.1
2017-Dec-31 15:29N 34°59' E 136°47'0 0.0
2017-Dec-31 14:59N 34°59' E 136°47'0 0.1
2017-Dec-31 14:29N 34°59' E 136°47'0 0.0
2017-Dec-31 13:59N 34°59' E 136°47'0 0.0
2017-Dec-31 13:29N 34°59' E 136°47'0 0.0
2017-Dec-31 12:59N 34°59' E 136°47'0 0.0
2017-Dec-31 12:29N 34°59' E 136°47'0 0.0
2017-Dec-31 11:59N 34°59' E 136°47'0 0.0
2017-Dec-31 11:29N 34°59' E 136°47'0 0.0
2017-Dec-31 10:59N 34°59' E 136°47'0 0.0
2017-Dec-31 10:26N 34°59' E 136°47'0 0.0
2017-Dec-31 09:59N 34°59' E 136°47'0 0.0
2017-Dec-31 09:26N 34°59' E 136°47'0 0.0
2017-Dec-31 08:59N 34°59' E 136°47'0 0.0
2017-Dec-31 08:29N 34°59' E 136°47'0 0.0
2017-Dec-31 07:59N 34°59' E 136°47'0 0.0
2017-Dec-31 07:29N 34°59' E 136°47'0 0.0
2017-Dec-31 06:58N 34°59' E 136°47'0 0.0
2017-Dec-31 06:28N 34°59' E 136°47'0 0.0
2017-Dec-31 05:58N 34°59' E 136°47'0 0.0
2017-Dec-31 05:28N 34°59' E 136°47'0 0.0
2017-Dec-31 04:58N 34°59' E 136°47'0 0.0
2017-Dec-31 04:28N 34°59' E 136°47'2 4.0
2017-Dec-31 04:00N 34°57' E 136°47'713.6
2017-Dec-31 03:30N 34°50' E 136°48'713.6
2017-Dec-31 03:01N 34°44' E 136°50'714.1
2017-Dec-31 02:30N 34°39' E 136°56'3011.8
2017-Dec-30 23:55N 34°09' E 136°48'  

Dump ship's entire track history